Time;durP1;ratioP1;P1;durP2;ratioP2;P2;SDS_P1;SDS_P2;PMS_P1;PMS_P2;Temp;Humidity;BMP_temperature;BMP_pressure;BME280_temperature;BME280_humidity;BME280_pressure;Samples;Min_cycle;Max_cycle;Signal;HPM_P1;HPM_P2
2021/03/13 00:00:00;;;;;;;5.93;2.00;;;;;;;4.21;81.59;99102.34;6120147;29;20431;-73
2021/03/13 00:03:37;;;;;;;10.90;2.30;;;;;;;4.31;81.70;99116.19;6120233;29;20493;-73
2021/03/13 00:06:42;;;;;;;10.27;2.27;;;;;;;4.33;81.93;99108.69;6101375;29;20302;-73
2021/03/13 00:09:45;;;;;;;4.20;2.13;;;;;;;4.30;81.68;99109.13;6096103;29;20225;-74
2021/03/13 00:12:50;;;;;;;9.23;2.40;;;;;;;4.21;82.12;99119.34;6097732;29;20253;-73
2021/03/13 00:15:54;;;;;;;4.97;2.00;;;;;;;4.24;82.08;99107.28;6097571;29;20192;-73
2021/03/13 00:18:58;;;;;;;8.50;2.37;;;;;;;4.27;81.67;99117.66;6096302;29;20245;-73
2021/03/13 00:22:02;;;;;;;11.07;2.30;;;;;;;4.27;81.88;99118.47;6097442;29;20193;-73
2021/03/13 00:25:08;;;;;;;8.13;2.30;;;;;;;4.17;81.62;99122.69;6097346;29;20240;-73
2021/03/13 00:28:13;;;;;;;13.73;2.37;;;;;;;4.09;82.07;99125.66;6097326;29;20278;-73
2021/03/13 00:31:17;;;;;;;7.20;2.20;;;;;;;4.15;81.23;99114.00;6097064;29;20268;-73
2021/03/13 00:34:21;;;;;;;3.63;2.00;;;;;;;4.24;81.30;99115.38;6096009;29;20224;-73
2021/03/13 00:37:24;;;;;;;8.57;2.27;;;;;;;4.26;81.14;99116.81;6095765;29;20327;-73
2021/03/13 00:40:29;;;;;;;8.43;2.13;;;;;;;4.28;81.30;99113.91;6096903;29;20196;-73
2021/03/13 00:43:33;;;;;;;6.43;2.30;;;;;;;4.34;81.02;99119.25;6096829;29;20191;-73
2021/03/13 00:46:40;;;;;;;10.57;2.47;;;;;;;4.25;81.06;99108.94;6096816;29;20232;-73
2021/03/13 00:49:44;;;;;;;6.93;1.83;;;;;;;4.34;80.62;99113.03;6079510;29;20231;-73
2021/03/13 00:52:48;;;;;;;11.00;2.40;;;;;;;4.23;81.32;99116.44;6094238;29;20292;-73
2021/03/13 00:55:51;;;;;;;6.30;2.60;;;;;;;4.29;80.89;99120.94;6096250;29;20191;-73
2021/03/13 00:59:01;;;;;;;9.60;2.60;;;;;;;4.20;81.34;99127.66;6079431;29;20440;-73
2021/03/13 01:02:06;;;;;;;11.17;2.53;;;;;;;4.12;81.04;99125.22;6094153;29;20413;-73
2021/03/13 01:05:13;;;;;;;6.90;2.07;;;;;;;4.16;82.14;99121.06;6086026;29;20519;-73
2021/03/13 01:08:20;;;;;;;8.90;2.30;;;;;;;4.22;81.81;99122.88;6119768;29;20239;-73
2021/03/13 01:11:35;;;;;;;5.27;2.30;;;;;;;4.15;82.42;99122.09;6101755;29;20231;-73
2021/03/13 01:14:42;;;;;;;7.57;2.10;;;;;;;4.28;81.96;99124.72;6117285;29;20212;-73
2021/03/13 01:17:47;;;;;;;8.00;1.93;;;;;;;3.92;81.99;99124.50;6102010;29;20209;-73
2021/03/13 01:20:51;;;;;;;9.57;2.33;;;;;;;4.18;81.88;99129.78;6118935;29;20265;-74
2021/03/13 01:23:59;;;;;;;11.07;2.03;;;;;;;4.18;81.49;99129.78;6101618;29;20248;-74
2021/03/13 01:27:09;;;;;;;11.33;2.60;;;;;;;4.23;81.90;99127.25;6118194;29;20208;-73
2021/03/13 01:30:20;;;;;;;10.97;2.30;;;;;;;4.20;82.10;99119.56;6101425;29;20410;-73
2021/03/13 01:33:34;;;;;;;9.80;2.17;;;;;;;4.15;81.58;99136.44;6102837;29;20190;-73
2021/03/13 01:36:39;;;;;;;10.57;2.10;;;;;;;4.10;82.28;99132.72;6101700;29;20556;-73
2021/03/13 01:39:43;;;;;;;5.80;2.30;;;;;;;4.11;82.30;99123.59;6117765;29;20218;-73
2021/03/13 01:42:51;;;;;;;7.13;2.10;;;;;;;4.15;81.31;99132.91;6101195;29;20214;-73
2021/03/13 01:46:02;;;;;;;7.13;2.27;;;;;;;4.08;82.04;99124.84;6116505;29;20213;-73
2021/03/13 01:49:17;;;;;;;8.43;2.47;;;;;;;3.95;82.39;99129.50;6118816;29;20192;-73
2021/03/13 01:52:21;;;;;;;9.10;2.20;;;;;;;3.93;82.91;99136.97;6116469;29;20214;-72
2021/03/13 01:55:24;;;;;;;5.17;2.43;;;;;;;4.09;81.99;99141.84;6101229;29;20210;-72
2021/03/13 01:58:40;;;;;;;3.27;2.17;;;;;;;3.98;82.90;99134.47;6101796;29;20192;-72
2021/03/13 02:02:04;;;;;;;4.20;1.90;;;;;;;3.97;81.89;99139.00;6100772;29;20208;-72
2021/03/13 02:05:16;;;;;;;4.03;1.77;;;;;;;4.07;82.53;99138.53;6109987;29;20497;-73
2021/03/13 02:08:32;;;;;;;11.37;2.20;;;;;;;4.11;82.11;99145.19;6078847;29;20199;-72
2021/03/13 02:11:43;;;;;;;8.37;2.17;;;;;;;4.09;82.37;99131.06;6092931;29;20492;-72
2021/03/13 02:15:00;;;;;;;5.70;1.97;;;;;;;4.05;81.84;99133.38;6076993;29;20240;-73
2021/03/13 02:18:12;;;;;;;7.47;2.40;;;;;;;4.07;82.50;99122.34;6078323;29;20206;-73
2021/03/13 02:21:23;;;;;;;8.03;2.53;;;;;;;4.02;82.92;99119.47;6077390;29;20448;-73
2021/03/13 02:24:58;;;;;;;5.50;2.13;;;;;;;4.13;81.89;99121.50;6093285;29;20209;-73
2021/03/13 02:28:07;;;;;;;6.43;2.47;;;;;;;3.94;82.97;99122.41;6077905;29;20239;-72
2021/03/13 02:31:16;;;;;;;8.40;2.23;;;;;;;4.08;82.00;99124.03;6093906;29;20380;-72
2021/03/13 02:34:26;;;;;;;6.03;1.83;;;;;;;3.89;82.85;99119.53;6081634;29;20237;-72
2021/03/13 02:37:34;;;;;;;3.60;2.20;;;;;;;3.93;83.20;99131.56;6099728;29;20193;-73
2021/03/13 02:40:42;;;;;;;5.07;2.00;;;;;;;3.94;82.37;99134.03;6082451;29;20271;-73
2021/03/13 02:43:49;;;;;;;8.07;2.27;;;;;;;3.98;82.98;99129.06;6082694;29;20215;-73
2021/03/13 02:46:55;;;;;;;8.57;2.10;;;;;;;3.87;83.27;99121.63;6081899;29;20520;-73
2021/03/13 02:50:08;;;;;;;10.97;2.23;;;;;;;3.77;83.08;99130.19;6081780;29;20229;-74
2021/03/13 02:53:26;;;;;;;10.53;2.13;;;;;;;3.81;83.03;99117.94;6081802;29;20215;-74
2021/03/13 02:56:34;;;;;;;4.73;1.87;;;;;;;3.83;83.72;99120.44;6081906;29;20508;-74
2021/03/13 02:59:40;;;;;;;3.90;1.70;;;;;;;3.88;82.84;99131.41;6075328;29;20210;-72
2021/03/13 03:02:53;;;;;;;4.70;2.17;;;;;;;3.62;83.86;99140.44;6098954;29;20193;-74
2021/03/13 03:05:59;;;;;;;6.43;1.90;;;;;;;3.47;84.18;99132.56;6119949;29;20290;-73
2021/03/13 03:09:09;;;;;;;11.67;2.17;;;;;;;3.61;84.38;99127.97;6128850;29;20235;-74
2021/03/13 03:12:22;;;;;;;11.27;1.97;;;;;;;3.68;83.76;99129.59;6128898;29;20211;-73
2021/03/13 03:15:31;;;;;;;9.37;1.80;;;;;;;3.51;84.52;99139.22;6128882;29;20344;-74
2021/03/13 03:18:42;;;;;;;9.47;1.87;;;;;;;3.61;84.05;99139.59;6129979;29;20254;-74
2021/03/13 03:21:46;;;;;;;5.97;1.57;;;;;;;3.59;83.99;99130.06;6128371;29;20537;-74
2021/03/13 03:24:50;;;;;;;6.47;2.20;;;;;;;3.41;84.61;99132.63;6127960;29;20238;-74
2021/03/13 03:27:54;;;;;;;6.77;1.87;;;;;;;3.45;84.99;99129.28;6144271;29;20211;-74
2021/03/13 03:31:15;;;;;;;6.03;1.70;;;;;;;3.37;84.51;99132.19;6143282;29;20408;-73
2021/03/13 03:34:22;;;;;;;7.93;1.93;;;;;;;3.48;84.65;99128.84;6128927;29;20212;-73
2021/03/13 03:37:29;;;;;;;6.70;1.83;;;;;;;3.50;84.74;99126.78;6128313;29;20211;-74
2021/03/13 03:40:37;;;;;;;2.80;1.87;;;;;;;3.55;84.29;99135.03;6127913;29;20501;-73
2021/03/13 03:43:44;;;;;;;4.43;2.10;;;;;;;3.37;84.46;99131.38;6127225;29;20207;-74
2021/03/13 03:46:53;;;;;;;6.63;1.83;;;;;;;3.34;84.71;99131.81;6127130;29;20206;-72
2021/03/13 03:49:59;;;;;;;8.10;1.87;;;;;;;3.44;84.74;99133.00;6127600;29;20224;-73
2021/03/13 03:53:25;;;;;;;5.87;1.73;;;;;;;3.38;84.78;99144.66;6144358;29;20211;-73
2021/03/13 03:56:28;;;;;;;2.30;1.70;;;;;;;3.27;84.85;99137.22;6143671;29;20191;-73
2021/03/13 03:59:33;;;;;;;6.23;2.00;;;;;;;3.30;85.09;99130.56;6145061;29;20191;-73
2021/03/13 04:02:38;;;;;;;5.40;1.90;;;;;;;3.27;84.29;99142.59;6144585;29;20190;-74
2021/03/13 04:05:44;;;;;;;7.43;2.00;;;;;;;3.22;85.02;99145.09;6143954;29;20238;-73
2021/03/13 04:08:50;;;;;;;5.10;1.77;;;;;;;2.85;86.39;99132.31;6143474;29;20483;-73
2021/03/13 04:11:55;;;;;;;4.87;2.20;;;;;;;3.00;86.11;99135.63;6144379;29;20266;-73
2021/03/13 04:14:59;;;;;;;7.67;1.93;;;;;;;2.98;86.03;99145.75;6143280;29;20481;-73
2021/03/13 04:18:03;;;;;;;4.97;2.10;;;;;;;2.70;87.68;99129.81;6144652;29;20195;-73
2021/03/13 04:21:10;;;;;;;6.63;2.40;;;;;;;2.78;87.91;99136.84;6144145;29;20234;-73
2021/03/13 04:24:14;;;;;;;5.73;2.20;;;;;;;2.93;86.29;99140.16;6144389;29;20259;-73
2021/03/13 04:27:20;;;;;;;6.47;1.97;;;;;;;2.78;87.02;99143.09;6143729;29;20263;-73
2021/03/13 04:30:24;;;;;;;9.03;1.70;;;;;;;2.71;86.72;99141.44;6142882;29;20277;-73
2021/03/13 04:33:37;;;;;;;1.73;1.50;;;;;;;2.79;86.58;99133.16;6144313;29;20191;-73
2021/03/13 04:36:42;;;;;;;9.23;1.83;;;;;;;2.68;87.51;99136.44;6142852;29;20519;-73
2021/03/13 04:39:47;;;;;;;7.13;2.00;;;;;;;2.69;86.98;99151.59;6144109;29;20189;-73
2021/03/13 04:42:51;;;;;;;3.47;1.80;;;;;;;2.82;86.44;99149.72;6143780;29;20202;-73
2021/03/13 04:45:57;;;;;;;4.33;2.07;;;;;;;2.72;86.52;99159.25;6142693;29;20381;-73
2021/03/13 04:49:04;;;;;;;5.63;1.83;;;;;;;2.60;87.10;99155.50;6142549;29;20377;-73
2021/03/13 04:52:15;;;;;;;7.37;2.10;;;;;;;2.62;87.21;99156.16;6143728;29;20319;-73
2021/03/13 04:55:19;;;;;;;4.20;2.10;;;;;;;2.54;87.37;99147.22;6143101;29;20191;-73
2021/03/13 04:58:22;;;;;;;6.80;2.30;;;;;;;2.14;89.11;99142.81;6143427;29;20190;-72
2021/03/13 05:01:25;;;;;;;5.80;2.20;;;;;;;2.49;88.38;99149.69;6143285;29;20198;-73
2021/03/13 05:04:31;;;;;;;6.00;2.03;;;;;;;2.52;88.03;99151.97;6139387;29;20215;-73
2021/03/13 05:07:35;;;;;;;3.80;1.67;;;;;;;2.54;87.49;99157.97;6096413;29;20234;-73
2021/03/13 05:10:39;;;;;;;6.30;2.37;;;;;;;2.35;88.23;99142.66;6096181;29;20270;-73
2021/03/13 05:13:42;;;;;;;4.00;1.70;;;;;;;2.48;88.32;99158.81;6095981;29;20230;-74
2021/03/13 05:16:45;;;;;;;7.20;2.03;;;;;;;2.49;88.00;99160.47;6095796;29;20190;-73
2021/03/13 05:19:49;;;;;;;8.80;2.60;;;;;;;2.45;88.21;99148.47;6096183;29;20198;-73
2021/03/13 05:22:55;;;;;;;7.57;2.17;;;;;;;2.63;87.24;99155.09;6095980;29;20204;-73
2021/03/13 05:25:58;;;;;;;5.20;1.93;;;;;;;2.53;87.65;99156.34;6096346;29;20196;-73
2021/03/13 05:29:16;;;;;;;3.73;2.00;;;;;;;2.43;87.29;99166.69;6095753;29;20197;-73
2021/03/13 05:32:20;;;;;;;6.77;2.13;;;;;;;2.50;87.86;99166.69;6094571;29;20280;-73
2021/03/13 05:35:24;;;;;;;8.97;2.37;;;;;;;2.61;87.40;99167.94;6095688;29;20274;-73
2021/03/13 05:38:29;;;;;;;12.30;2.27;;;;;;;2.39;87.45;99175.34;6095610;29;20197;-73
2021/03/13 05:41:35;;;;;;;5.17;2.03;;;;;;;2.49;87.76;99176.63;6094865;29;20195;-73
2021/03/13 05:44:39;;;;;;;5.03;1.87;;;;;;;2.54;87.80;99168.75;6094127;29;20192;-73
2021/03/13 05:47:42;;;;;;;11.07;1.93;;;;;;;2.54;88.08;99176.81;6094461;29;20240;-73
2021/03/13 05:50:47;;;;;;;5.77;2.20;;;;;;;2.56;87.77;99181.19;6094091;29;20633;-73
2021/03/13 05:53:51;;;;;;;7.40;2.60;;;;;;;2.51;87.92;99177.25;6094927;29;20198;-73
2021/03/13 05:56:58;;;;;;;9.50;2.30;;;;;;;2.66;88.40;99181.59;6095386;29;20228;-73
2021/03/13 06:00:01;;;;;;;5.13;1.80;;;;;;;2.65;87.58;99171.88;6093894;29;20225;-73
2021/03/13 06:03:32;;;;;;;11.87;2.63;;;;;;;2.76;87.73;99179.34;6095145;29;20205;-73
2021/03/13 06:06:38;;;;;;;7.10;2.20;;;;;;;2.78;88.22;99178.09;6094461;29;20284;-72
2021/03/13 06:09:42;;;;;;;12.23;2.20;;;;;;;2.65;87.86;99174.56;6094523;29;20189;-72
2021/03/13 06:12:46;;;;;;;5.50;2.10;;;;;;;2.36;89.60;99170.41;6094880;29;20263;-73
2021/03/13 06:15:49;;;;;;;3.53;2.40;;;;;;;2.62;89.22;99175.00;6094922;29;20195;-72
2021/03/13 06:18:56;;;;;;;7.57;2.03;;;;;;;2.70;88.64;99180.16;6094950;29;20203;-71
2021/03/13 06:22:00;;;;;;;6.77;2.00;;;;;;;2.70;88.57;99177.44;6094650;29;20236;-72
2021/03/13 06:25:17;;;;;;;6.93;2.07;;;;;;;2.97;87.29;99184.50;6094633;29;20190;-72
2021/03/13 06:28:21;;;;;;;7.57;2.43;;;;;;;2.92;87.71;99193.22;6094841;29;20257;-72
2021/03/13 06:31:26;;;;;;;3.53;2.13;;;;;;;2.72;87.92;99188.88;6093417;29;20219;-73
2021/03/13 06:34:31;;;;;;;4.03;2.27;;;;;;;2.76;88.48;99179.34;6094475;29;20192;-72
2021/03/13 06:37:34;;;;;;;6.37;2.17;;;;;;;3.03;87.10;99178.31;6093697;29;20192;-72
2021/03/13 06:40:39;;;;;;;8.37;2.40;;;;;;;3.13;87.12;99178.72;6094314;29;20260;-72
2021/03/13 06:43:42;;;;;;;3.57;2.03;;;;;;;3.21;86.41;99178.47;6094827;29;20263;-73
2021/03/13 06:46:46;;;;;;;4.77;2.23;;;;;;;3.24;86.71;99186.13;6094721;29;20259;-72
2021/03/13 06:50:07;;;;;;;5.77;2.27;;;;;;;3.08;87.15;99181.19;6094596;29;20195;-73
2021/03/13 06:53:16;;;;;;;9.17;2.53;;;;;;;3.27;86.08;99184.88;6094190;29;20260;-72
2021/03/13 06:56:25;;;;;;;5.17;2.20;;;;;;;3.17;87.07;99190.72;6093219;29;20380;-72
2021/03/13 06:59:32;;;;;;;5.03;2.40;;;;;;;3.22;86.31;99199.00;6094477;29;20192;-72
2021/03/13 07:02:37;;;;;;;9.07;2.57;;;;;;;3.24;86.44;99201.47;6094112;29;20203;-73
2021/03/13 07:05:47;;;;;;;7.13;2.43;;;;;;;3.24;86.71;99199.59;6093781;29;20232;-72
2021/03/13 07:08:52;;;;;;;7.73;2.13;;;;;;;3.32;86.95;99194.00;6094414;29;20196;-72
2021/03/13 07:11:57;;;;;;;5.97;2.30;;;;;;;3.48;86.17;99193.56;6093995;29;20279;-72
2021/03/13 07:15:16;;;;;;;6.77;2.30;;;;;;;3.49;86.12;99200.59;6093225;29;20198;-72
2021/03/13 07:18:25;;;;;;;5.40;2.20;;;;;;;3.44;86.45;99208.47;6094252;29;20381;-72
2021/03/13 07:21:30;;;;;;;4.37;2.40;;;;;;;3.36;86.71;99197.94;6097474;29;20498;-72
2021/03/13 07:24:36;;;;;;;9.40;2.43;;;;;;;3.46;86.36;99211.81;6097326;29;20379;-72
2021/03/13 07:27:41;;;;;;;5.73;2.33;;;;;;;3.48;86.26;99212.44;6098651;29;20347;-73
2021/03/13 07:30:44;;;;;;;8.07;2.20;;;;;;;3.54;85.84;99225.09;6098491;29;20231;-73
2021/03/13 07:34:01;;;;;;;5.00;2.63;;;;;;;3.60;85.71;99221.53;6097076;29;20221;-73
2021/03/13 07:37:07;;;;;;;17.13;3.00;;;;;;;3.26;86.44;99219.13;6096045;29;20209;-73
2021/03/13 07:40:16;;;;;;;5.13;2.20;;;;;;;3.51;86.84;99220.09;6097208;29;20193;-73
2021/03/13 07:43:21;;;;;;;13.10;2.60;;;;;;;3.61;86.00;99231.28;6098218;29;20196;-73
2021/03/13 07:46:25;;;;;;;3.90;2.27;;;;;;;3.80;85.07;99230.38;6098045;29;20191;-72
2021/03/13 07:49:32;;;;;;;6.83;2.47;;;;;;;3.47;86.29;99234.19;6096726;29;20413;-73
2021/03/13 07:52:38;;;;;;;6.07;2.10;;;;;;;3.48;85.78;99225.91;6097530;29;20248;-73
2021/03/13 07:55:42;;;;;;;9.93;2.67;;;;;;;3.53;85.60;99239.59;6097158;29;20409;-72
2021/03/13 07:58:47;;;;;;;10.90;3.07;;;;;;;3.66;85.37;99228.78;6097716;29;20256;-72
2021/03/13 08:01:52;;;;;;;6.97;2.73;;;;;;;3.78;85.06;99227.06;6097487;29;20264;-72
2021/03/13 08:04:57;;;;;;;7.07;2.70;;;;;;;3.89;84.97;99227.47;6090731;29;20275;-72
2021/03/13 08:08:03;;;;;;;5.57;2.90;;;;;;;3.99;84.12;99227.84;6120574;29;20230;-72
2021/03/13 08:11:08;;;;;;;4.57;2.33;;;;;;;4.02;83.79;99227.41;6119587;29;20409;-72
2021/03/13 08:14:30;;;;;;;9.03;2.80;;;;;;;3.89;83.76;99222.06;6120080;29;20299;-72
2021/03/13 08:17:39;;;;;;;9.33;2.53;;;;;;;3.87;84.37;99221.44;6119633;29;20521;-72
2021/03/13 08:20:43;;;;;;;4.57;2.33;;;;;;;3.83;84.21;99233.72;6120565;29;20200;-72
2021/03/13 08:23:48;;;;;;;11.23;2.53;;;;;;;3.93;83.96;99217.91;6120842;29;20201;-72
2021/03/13 08:27:00;;;;;;;6.60;2.50;;;;;;;3.94;84.21;99224.94;6120660;29;20194;-72
2021/03/13 08:30:17;;;;;;;7.23;2.47;;;;;;;4.05;83.53;99227.00;6118336;29;20445;-73
2021/03/13 08:33:28;;;;;;;7.60;2.50;;;;;;;4.10;83.92;99229.88;6120528;29;20374;-73
2021/03/13 08:36:33;;;;;;;6.17;2.27;;;;;;;4.14;83.44;99228.38;6120516;29;20197;-73
2021/03/13 08:39:36;;;;;;;8.93;2.53;;;;;;;4.15;82.58;99222.78;6120447;29;20194;-73
2021/03/13 08:42:40;;;;;;;5.77;2.40;;;;;;;4.15;82.88;99216.56;6118917;29;20595;-73
2021/03/13 08:45:44;;;;;;;6.77;2.30;;;;;;;4.16;82.72;99229.03;6118784;29;20495;-73
2021/03/13 08:48:55;;;;;;;7.77;2.47;;;;;;;4.25;82.98;99235.81;6119767;29;20196;-73
2021/03/13 08:52:23;;;;;;;4.23;2.50;;;;;;;4.17;82.78;99219.88;6119664;29;20220;-72
2021/03/13 08:55:33;;;;;;;9.37;2.20;;;;;;;4.17;82.65;99225.25;6119543;29;20198;-73
2021/03/13 08:58:41;;;;;;;5.40;2.40;;;;;;;4.15;82.52;99227.34;6118534;29;20480;-72
2021/03/13 09:02:01;;;;;;;5.37;1.93;;;;;;;4.24;82.39;99232.28;6118194;29;20378;-73
2021/03/13 09:05:09;;;;;;;6.17;2.60;;;;;;;4.27;82.10;99220.22;6111116;29;20282;-73
2021/03/13 09:08:19;;;;;;;6.83;2.53;;;;;;;4.34;81.93;99227.25;6119618;29;20193;-73
2021/03/13 09:11:28;;;;;;;6.30;2.40;;;;;;;4.39;81.06;99226.63;6119068;29;20191;-72
2021/03/13 09:14:32;;;;;;;3.87;2.23;;;;;;;4.43;81.30;99208.94;6118142;29;20502;-73
2021/03/13 09:17:36;;;;;;;10.73;2.63;;;;;;;4.64;80.67;99222.09;6119018;29;20190;-72
2021/03/13 09:20:43;;;;;;;5.93;2.50;;;;;;;4.73;80.56;99214.53;6119014;29;20284;-73
2021/03/13 09:23:46;;;;;;;8.23;2.67;;;;;;;4.59;80.60;99213.81;6117903;29;20237;-73
2021/03/13 09:26:52;;;;;;;8.03;2.37;;;;;;;4.72;81.26;99208.34;6119084;29;20192;-73
2021/03/13 09:29:56;;;;;;;7.63;2.97;;;;;;;4.90;79.74;99205.72;6118899;29;20190;-73
2021/03/13 09:33:01;;;;;;;9.27;2.60;;;;;;;4.84;80.16;99212.00;6118776;29;20246;-73
2021/03/13 09:36:10;;;;;;;8.77;2.53;;;;;;;4.72;79.71;99208.34;6117714;29;20355;-73
2021/03/13 09:39:21;;;;;;;6.90;2.37;;;;;;;4.80;79.22;99204.53;6118370;29;20190;-73
2021/03/13 09:42:26;;;;;;;7.63;2.43;;;;;;;4.85;78.06;99213.63;6117121;29;20257;-73
2021/03/13 09:45:29;;;;;;;8.00;2.60;;;;;;;4.77;79.21;99211.22;6118491;29;20196;-72
2021/03/13 09:48:34;;;;;;;4.80;2.00;;;;;;;4.86;78.63;99215.28;6117562;29;20206;-73
2021/03/13 09:51:47;;;;;;;5.90;2.53;;;;;;;5.10;78.38;99204.72;6117440;29;20246;-73
2021/03/13 09:54:59;;;;;;;7.30;2.60;;;;;;;5.16;77.71;99209.25;6117332;29;20371;-73
2021/03/13 09:58:04;;;;;;;5.40;2.20;;;;;;;5.07;77.58;99206.81;6117244;29;20194;-72
2021/03/13 10:01:13;;;;;;;7.07;2.90;;;;;;;4.95;78.90;99197.78;6117139;29;20366;-73
2021/03/13 10:04:19;;;;;;;8.43;2.50;;;;;;;5.05;78.45;99208.91;6110545;29;20207;-73
2021/03/13 10:07:23;;;;;;;11.00;2.80;;;;;;;4.98;78.70;99202.72;6117385;29;20243;-72
2021/03/13 10:10:28;;;;;;;8.47;2.87;;;;;;;5.10;77.54;99199.31;6116989;29;20366;-73
2021/03/13 10:13:44;;;;;;;8.03;2.70;;;;;;;5.25;77.50;99197.09;6117095;29;20218;-74
2021/03/13 10:17:10;;;;;;;9.10;2.63;;;;;;;5.25;76.59;99197.91;6117089;29;20223;-73
2021/03/13 10:20:16;;;;;;;9.63;2.60;;;;;;;5.18;77.28;99196.31;6117941;29;20191;-73
2021/03/13 10:23:23;;;;;;;6.93;2.70;;;;;;;5.02;77.88;99195.84;6117304;29;20241;-73
2021/03/13 10:26:28;;;;;;;4.13;2.60;;;;;;;5.24;77.03;99203.56;6117701;29;20255;-73
2021/03/13 10:29:34;;;;;;;6.83;2.50;;;;;;;5.10;76.05;99193.91;6117949;29;20191;-72
2021/03/13 10:32:40;;;;;;;9.90;2.67;;;;;;;5.20;76.76;99188.81;6117546;29;20219;-72
2021/03/13 10:35:49;;;;;;;11.57;2.80;;;;;;;5.39;76.54;99204.03;6117457;29;20202;-72
2021/03/13 10:38:57;;;;;;;9.03;2.53;;;;;;;5.51;75.80;99191.41;6116408;29;20191;-71
2021/03/13 10:42:01;;;;;;;8.03;2.63;;;;;;;5.45;75.67;99200.41;6117528;29;20269;-71
2021/03/13 10:45:15;;;;;;;9.77;2.87;;;;;;;5.64;75.12;99191.28;6117433;29;20192;-71
2021/03/13 10:48:23;;;;;;;8.03;2.33;;;;;;;5.57;75.03;99185.91;6117183;29;20232;-72
2021/03/13 10:51:29;;;;;;;7.97;2.37;;;;;;;5.68;74.10;99187.91;6116218;29;20196;-73
2021/03/13 10:54:33;;;;;;;6.90;2.40;;;;;;;5.75;74.32;99192.41;6119256;29;20191;-74
2021/03/13 10:57:56;;;;;;;13.13;3.70;;;;;;;5.73;74.48;99195.31;6122322;29;20216;-72
2021/03/13 11:01:03;;;;;;;4.97;2.53;;;;;;;5.84;74.47;99186.47;6122031;29;20199;-72
2021/03/13 11:04:14;;;;;;;9.37;2.57;;;;;;;5.81;74.60;99186.09;6114354;29;20208;-73
2021/03/13 11:07:19;;;;;;;7.87;2.77;;;;;;;6.00;74.35;99185.88;6120501;29;20376;-72
2021/03/13 11:10:22;;;;;;;9.80;2.80;;;;;;;5.94;73.82;99186.78;6121348;29;20262;-73
2021/03/13 11:13:26;;;;;;;3.70;2.40;;;;;;;6.02;74.09;99186.47;6120759;29;20220;-73
2021/03/13 11:16:31;;;;;;;5.37;2.33;;;;;;;6.10;73.89;99186.19;6121368;29;20247;-72
2021/03/13 11:19:39;;;;;;;7.80;2.43;;;;;;;6.02;73.54;99188.34;6121431;29;20245;-73
2021/03/13 11:22:43;;;;;;;10.30;2.70;;;;;;;6.04;72.82;99192.50;6120254;29;20243;-73
2021/03/13 11:25:47;;;;;;;4.90;2.53;;;;;;;6.04;72.41;99187.06;6119995;29;20235;-74
2021/03/13 11:28:52;;;;;;;11.97;2.60;;;;;;;6.13;72.23;99180.31;6121328;29;20192;-73
2021/03/13 11:31:55;;;;;;;8.60;2.97;;;;;;;6.13;71.90;99180.31;6120098;29;20501;-74
2021/03/13 11:34:59;;;;;;;9.03;2.30;;;;;;;6.24;72.75;99182.22;6121440;29;20275;-73
2021/03/13 11:38:03;;;;;;;6.50;2.60;;;;;;;6.08;71.31;99176.63;6121269;29;20223;-73
2021/03/13 11:41:09;;;;;;;10.23;2.43;;;;;;;6.02;71.84;99183.78;6120912;29;20193;-73
2021/03/13 11:44:14;;;;;;;8.63;2.60;;;;;;;6.15;71.47;99171.94;6119841;29;20482;-73
2021/03/13 11:47:17;;;;;;;8.27;2.97;;;;;;;6.02;71.16;99183.78;6119935;29;20196;-73
2021/03/13 11:50:21;;;;;;;7.37;3.00;;;;;;;6.15;71.69;99180.06;6120435;29;20230;-73
2021/03/13 11:53:26;;;;;;;6.70;2.80;;;;;;;6.15;71.80;99183.63;6119668;29;20534;-73
2021/03/13 11:56:32;;;;;;;14.73;3.17;;;;;;;6.28;71.67;99183.44;6119487;29;20478;-73
2021/03/13 11:59:36;;;;;;;8.23;3.03;;;;;;;6.27;71.87;99183.66;6120441;29;20232;-73
2021/03/13 12:02:39;;;;;;;15.27;3.47;;;;;;;6.38;71.59;99182.03;6119325;29;20235;-73
2021/03/13 12:05:44;;;;;;;9.73;3.10;;;;;;;6.46;71.28;99192.56;6113305;29;20244;-73
2021/03/13 12:08:48;;;;;;;9.37;2.97;;;;;;;6.44;71.01;99184.69;6120636;29;20192;-73
2021/03/13 12:11:52;;;;;;;8.23;2.60;;;;;;;6.30;71.38;99181.31;6120660;29;20216;-73
2021/03/13 12:14:55;;;;;;;9.60;2.43;;;;;;;6.49;70.70;99175.84;6120423;29;20219;-73
2021/03/13 12:17:59;;;;;;;12.57;2.67;;;;;;;6.48;70.35;99176.91;6119375;29;20189;-73
2021/03/13 12:21:03;;;;;;;5.70;3.10;;;;;;;6.49;71.53;99167.72;6119864;29;20276;-73
2021/03/13 12:24:09;;;;;;;9.23;2.50;;;;;;;6.42;70.62;99167.00;6119409;29;20249;-73
2021/03/13 12:27:13;;;;;;;4.00;3.03;;;;;;;6.56;70.83;99163.03;6119916;29;20189;-74
2021/03/13 12:30:19;;;;;;;10.27;2.90;;;;;;;6.75;69.97;99167.34;6120002;29;20190;-72
2021/03/13 12:33:28;;;;;;;8.37;2.63;;;;;;;6.78;68.12;99156.00;6119863;29;20245;-72
2021/03/13 12:36:32;;;;;;;11.10;2.50;;;;;;;6.53;67.41;99168.91;6118977;29;20506;-72
2021/03/13 12:39:52;;;;;;;3.33;2.00;;;;;;;6.66;67.81;99168.72;6119728;29;20256;-72
2021/03/13 12:42:56;;;;;;;11.17;2.33;;;;;;;6.56;66.42;99163.84;6119950;29;20193;-73
2021/03/13 12:46:00;;;;;;;11.03;2.33;;;;;;;6.73;66.32;99153.16;6119562;29;20193;-73
2021/03/13 12:49:26;;;;;;;8.53;2.40;;;;;;;6.51;66.61;99161.03;6119361;29;20229;-72
2021/03/13 12:52:29;;;;;;;8.23;1.90;;;;;;;6.62;64.76;99156.69;6118458;29;20244;-72
2021/03/13 12:55:34;;;;;;;2.80;2.00;;;;;;;6.66;64.76;99160.56;6119453;29;20228;-72
2021/03/13 12:58:37;;;;;;;7.03;2.30;;;;;;;6.75;64.30;99162.72;6118084;29;20483;-72
2021/03/13 13:01:40;;;;;;;10.43;2.33;;;;;;;6.56;64.38;99168.44;6118070;29;20215;-71
2021/03/13 13:04:44;;;;;;;3.07;1.63;;;;;;;6.77;64.16;99170.63;6101166;29;20268;-73
2021/03/13 13:07:49;;;;;;;4.20;1.87;;;;;;;6.78;64.68;99172.25;6118161;29;20522;-72
2021/03/13 13:10:53;;;;;;;9.40;2.00;;;;;;;6.78;64.49;99170.38;6119384;29;20220;-72
2021/03/13 13:13:57;;;;;;;4.20;1.90;;;;;;;6.85;64.22;99173.00;6117537;29;20443;-72
2021/03/13 13:17:00;;;;;;;8.50;2.37;;;;;;;6.80;62.44;99175.59;6117236;29;20394;-72
2021/03/13 13:20:08;;;;;;;4.93;1.83;;;;;;;6.82;62.78;99178.88;6119043;29;20199;-73
2021/03/13 13:23:17;;;;;;;3.30;2.17;;;;;;;6.77;59.78;99184.19;6118839;29;20215;-73
2021/03/13 13:26:21;;;;;;;25.73;12.37;;;;;;;6.86;60.56;99174.63;6118763;29;20236;-72
2021/03/13 13:29:24;;;;;;;4.93;2.07;;;;;;;6.71;60.15;99160.72;6118502;29;20265;-72
2021/03/13 13:32:27;;;;;;;3.03;1.80;;;;;;;6.93;60.00;99186.22;6117354;29;20381;-72
2021/03/13 13:35:31;;;;;;;5.87;1.70;;;;;;;6.93;59.45;99180.81;6100300;29;20244;-73
2021/03/13 13:38:34;;;;;;;5.13;1.53;;;;;;;6.99;59.26;99179.84;6118503;29;20199;-72
2021/03/13 13:41:39;;;;;;;2.00;1.60;;;;;;;6.91;58.64;99188.31;6118202;29;20196;-73
2021/03/13 13:44:42;;;;;;;4.40;1.90;;;;;;;6.79;59.04;99190.19;6117862;29;20256;-72
2021/03/13 13:47:49;;;;;;;5.47;1.53;;;;;;;6.94;60.26;99185.16;6117210;29;20488;-72
2021/03/13 13:50:53;;;;;;;4.47;1.77;;;;;;;7.01;60.13;99188.56;6117183;29;20373;-73
2021/03/13 13:53:56;;;;;;;3.67;1.40;;;;;;;6.99;60.40;99193.41;6116930;29;20416;-72
2021/03/13 13:57:02;;;;;;;6.67;1.70;;;;;;;6.90;60.56;99197.53;6117239;29;20200;-72
2021/03/13 14:00:09;;;;;;;5.83;2.00;;;;;;;6.99;61.58;99187.97;6118170;29;20193;-72
2021/03/13 14:03:25;;;;;;;3.07;1.40;;;;;;;7.01;59.01;99194.00;6116564;29;20391;-72
2021/03/13 14:06:28;;;;;;;3.77;1.30;;;;;;;7.07;59.56;99197.66;6117123;29;20239;-72
2021/03/13 14:09:32;;;;;;;4.20;1.67;;;;;;;7.06;59.53;99196.03;6116750;29;20497;-72
2021/03/13 14:12:36;;;;;;;7.30;1.70;;;;;;;7.03;58.74;99191.91;6116905;29;20189;-73
2021/03/13 14:15:40;;;;;;;5.60;1.87;;;;;;;6.83;57.16;99192.19;6117899;29;20213;-73
2021/03/13 14:18:43;;;;;;;5.87;1.60;;;;;;;6.86;58.05;99196.31;6116696;29;20415;-73
2021/03/13 14:21:47;;;;;;;3.27;1.67;;;;;;;6.87;59.24;99198.81;6117773;29;20189;-73
2021/03/13 14:24:50;;;;;;;3.43;1.57;;;;;;;6.72;58.38;99197.59;6117964;29;20263;-73
2021/03/13 14:27:54;;;;;;;7.53;2.33;;;;;;;6.73;58.56;99185.69;6116950;29;20193;-73
2021/03/13 14:30:57;;;;;;;2.47;1.67;;;;;;;6.71;59.18;99199.47;6117745;29;20236;-73
2021/03/13 14:34:01;;;;;;;7.73;1.57;;;;;;;6.66;57.94;99195.81;6117903;29;20220;-73
2021/03/13 14:37:06;;;;;;;2.37;1.43;;;;;;;6.76;58.81;99190.66;6118014;29;20192;-73
2021/03/13 14:40:14;;;;;;;3.37;1.60;;;;;;;6.76;58.77;99194.19;6117643;29;20189;-73
2021/03/13 14:43:18;;;;;;;2.97;2.37;;;;;;;6.80;58.21;99192.69;6117434;29;20260;-73
2021/03/13 14:46:21;;;;;;;1.80;1.70;;;;;;;6.81;59.11;99193.50;6116913;29;20386;-73
2021/03/13 14:49:25;;;;;;;6.73;1.87;;;;;;;6.72;58.72;99200.31;6117557;29;20196;-73